createdAt,value
2023-05-03T00:00:13.793Z,6.72
2023-05-03T00:02:44.597Z,6.53
2023-05-03T00:05:14.580Z,6.85
2023-05-03T00:07:44.375Z,6.90
2023-05-03T00:10:13.508Z,7.40
2023-05-03T00:12:45.141Z,5.90
2023-05-03T00:15:13.383Z,5.85
2023-05-03T00:17:41.651Z,6.72
2023-05-03T00:20:10.383Z,7.50
2023-05-03T00:22:38.852Z,6.07
2023-05-03T00:25:08.571Z,4.80
2023-05-03T00:27:37.241Z,6.20
2023-05-03T00:30:08.098Z,5.95
2023-05-03T00:32:36.707Z,6.03
2023-05-03T00:35:04.925Z,6.68
2023-05-03T00:37:33.496Z,6.88
2023-05-03T00:40:01.847Z,5.65
2023-05-03T00:42:30.534Z,6.63
2023-05-03T00:44:58.697Z,6.30
2023-05-03T00:47:28.150Z,6.10
2023-05-03T00:49:56.504Z,6.85
2023-05-03T00:52:24.956Z,5.70
2023-05-03T00:54:53.436Z,7.20
2023-05-03T00:57:23.053Z,6.15
2023-05-03T00:59:51.347Z,6.93
2023-05-03T01:02:19.458Z,6.70
2023-05-03T01:04:50.090Z,6.32
2023-05-03T01:07:29.447Z,7.07
2023-05-03T01:10:10.037Z,6.95
2023-05-03T01:12:50.567Z,8.43
2023-05-03T01:15:26.990Z,6.78
2023-05-03T01:17:59.493Z,5.80
2023-05-03T01:20:32.432Z,6.88
2023-05-03T01:23:07.094Z,6.78
2023-05-03T01:25:36.929Z,5.65
2023-05-03T01:28:05.258Z,6.25
2023-05-03T01:30:35.385Z,7.05
2023-05-03T01:33:10.036Z,6.07
2023-05-03T01:35:42.498Z,5.75
2023-05-03T01:38:12.242Z,6.35
2023-05-03T01:40:46.212Z,6.38
2023-05-03T01:43:17.321Z,7.75
2023-05-03T01:45:45.969Z,6.25
2023-05-03T01:48:20.148Z,6.95
2023-05-03T01:50:48.097Z,7.32
2023-05-03T01:53:16.252Z,6.97
2023-05-03T01:55:45.787Z,6.80
2023-05-03T01:58:13.887Z,6.85
2023-05-03T02:00:42.292Z,6.55
2023-05-03T02:03:10.515Z,6.85
2023-05-03T02:05:38.800Z,6.15
2023-05-03T02:08:07.127Z,7.43
2023-05-03T02:10:35.765Z,8.02
2023-05-03T02:13:05.562Z,6.47
2023-05-03T02:15:33.861Z,7.60
2023-05-03T02:18:02.848Z,6.25
2023-05-03T02:20:35.396Z,7.97
2023-05-03T02:23:03.623Z,6.72
2023-05-03T02:25:32.028Z,6.43
2023-05-03T02:28:00.135Z,7.22
2023-05-03T02:30:29.799Z,7.57
2023-05-03T02:32:57.908Z,7.60
2023-05-03T02:35:26.541Z,8.30
2023-05-03T02:37:54.568Z,7.10
2023-05-03T02:40:22.898Z,7.13
2023-05-03T02:42:52.290Z,7.18
2023-05-03T02:45:26.025Z,7.97
2023-05-03T02:47:55.594Z,8.13
2023-05-03T02:50:28.145Z,7.72
2023-05-03T02:52:56.696Z,6.55
2023-05-03T02:55:25.196Z,7.65
2023-05-03T02:57:53.446Z,7.75
2023-05-03T03:00:22.490Z,8.65
2023-05-03T03:02:50.951Z,8.18
2023-05-03T03:05:20.806Z,7.10
2023-05-03T03:07:51.387Z,8.55
2023-05-03T03:10:19.808Z,6.50
2023-05-03T03:12:47.994Z,7.82
2023-05-03T03:15:25.444Z,8.07
2023-05-03T03:17:57.650Z,7.32
2023-05-03T03:20:28.231Z,7.38
2023-05-03T03:22:56.348Z,7.93
2023-05-03T03:25:24.946Z,7.68
2023-05-03T03:27:53.935Z,8.65
2023-05-03T03:30:22.009Z,7.60
2023-05-03T03:33:06.535Z,8.07
2023-05-03T03:35:41.641Z,8.80
2023-05-03T03:38:10.902Z,9.00
2023-05-03T03:40:45.337Z,8.65
2023-05-03T03:43:13.635Z,9.07
2023-05-03T03:45:42.151Z,8.85
2023-05-03T03:48:13.176Z,9.50
2023-05-03T03:50:42.814Z,9.55
2023-05-03T03:53:12.681Z,9.30
2023-05-03T03:55:41.845Z,9.43
2023-05-03T03:58:10.487Z,10.02
2023-05-03T04:00:39.394Z,8.77
2023-05-03T04:03:14.070Z,9.52
2023-05-03T04:05:44.023Z,8.57
2023-05-03T04:08:12.556Z,9.05
2023-05-03T04:10:41.421Z,9.57
2023-05-03T04:13:10.144Z,9.80
2023-05-03T04:15:38.275Z,9.43
2023-05-03T04:18:07.335Z,9.77
2023-05-03T04:20:38.400Z,8.60
2023-05-03T04:23:09.960Z,9.60
2023-05-03T04:25:38.883Z,9.00
2023-05-03T04:28:13.668Z,8.85
2023-05-03T04:31:10.058Z,8.63
2023-05-03T04:33:38.409Z,8.43
2023-05-03T04:36:07.931Z,8.68
2023-05-03T04:38:39.237Z,10.18
2023-05-03T04:41:08.015Z,9.05
2023-05-03T04:43:39.211Z,8.60
2023-05-03T04:46:08.265Z,10.57
2023-05-03T04:48:37.290Z,10.13
2023-05-03T04:51:05.826Z,7.47
2023-05-03T04:53:34.347Z,9.73
2023-05-03T04:56:11.894Z,8.20
2023-05-03T04:58:42.710Z,7.95
2023-05-03T05:01:10.924Z,9.90
2023-05-03T05:03:39.454Z,8.57
2023-05-03T05:06:12.839Z,8.63
2023-05-03T05:08:42.903Z,10.48
2023-05-03T05:11:15.919Z,9.05
2023-05-03T05:13:44.167Z,8.95
2023-05-03T05:16:13.353Z,9.75
2023-05-03T05:18:45.290Z,9.77
2023-05-03T05:21:14.704Z,8.70
2023-05-03T05:23:43.008Z,8.25
2023-05-03T05:26:11.284Z,8.73
2023-05-03T05:28:41.676Z,7.65
2023-05-03T05:31:09.881Z,9.15
2023-05-03T05:33:38.250Z,8.20
2023-05-03T05:36:07.449Z,9.35
2023-05-03T05:38:36.660Z,8.05
2023-05-03T05:41:06.512Z,8.27
2023-05-03T05:43:35.000Z,9.32
2023-05-03T05:46:05.166Z,8.35
2023-05-03T05:48:33.330Z,9.30
2023-05-03T05:51:02.928Z,8.25
2023-05-03T05:53:31.212Z,8.45
2023-05-03T05:56:11.756Z,8.88
2023-05-03T05:58:40.212Z,9.52
2023-05-03T06:01:10.898Z,9.35
2023-05-03T06:03:41.479Z,9.80
2023-05-03T06:06:10.401Z,9.73
2023-05-03T06:08:38.590Z,10.10
2023-05-03T06:11:07.907Z,10.88
2023-05-03T06:13:38.723Z,10.70
2023-05-03T06:16:10.022Z,8.20
2023-05-03T06:18:39.095Z,10.40
2023-05-03T06:21:10.479Z,9.70
2023-05-03T06:23:39.764Z,9.90
2023-05-03T06:26:09.347Z,9.35
2023-05-03T06:28:37.542Z,9.88
2023-05-03T06:31:06.380Z,8.70
2023-05-03T06:33:36.048Z,9.43
2023-05-03T06:36:04.487Z,9.25
2023-05-03T06:38:32.732Z,10.82
2023-05-03T06:41:01.120Z,10.30
2023-05-03T06:43:29.453Z,9.85
2023-05-03T06:46:03.322Z,9.05
2023-05-03T06:48:31.876Z,10.55
2023-05-03T06:51:01.585Z,9.40
2023-05-03T06:53:29.963Z,9.27
2023-05-03T06:55:58.293Z,8.57
2023-05-03T06:58:26.423Z,8.75
2023-05-03T07:00:54.953Z,9.40
2023-05-03T07:03:23.326Z,8.73
2023-05-03T07:05:52.167Z,10.73
2023-05-03T07:08:21.588Z,10.95
2023-05-03T07:10:49.900Z,9.43
2023-05-03T07:13:18.207Z,10.90
2023-05-03T07:15:46.682Z,10.15
2023-05-03T07:18:14.980Z,10.60
2023-05-03T07:20:43.358Z,11.32
2023-05-03T07:23:11.624Z,9.68
2023-05-03T07:25:41.298Z,11.00
2023-05-03T07:28:09.570Z,11.70
2023-05-03T07:30:37.789Z,11.95
2023-05-03T07:33:05.975Z,12.15
2023-05-03T07:35:34.292Z,12.20
2023-05-03T07:38:02.599Z,10.20
2023-05-03T07:40:34.555Z,10.50
2023-05-03T07:43:04.233Z,9.63
2023-05-03T07:45:32.442Z,11.88
2023-05-03T07:48:00.649Z,10.90
2023-05-03T07:50:29.228Z,11.70
2023-05-03T07:52:57.780Z,10.27
2023-05-03T07:55:26.786Z,11.30
2023-05-03T07:57:58.856Z,12.68
2023-05-03T08:00:28.541Z,11.20
2023-05-03T08:02:57.114Z,12.00
2023-05-03T08:05:25.384Z,11.32
2023-05-03T08:07:53.787Z,11.52
2023-05-03T08:10:22.621Z,12.30
2023-05-03T08:12:51.429Z,10.98
2023-05-03T08:15:19.883Z,12.50
2023-05-03T08:17:49.633Z,11.88
2023-05-03T08:20:17.649Z,10.60
2023-05-03T08:22:46.508Z,12.55
2023-05-03T08:25:17.003Z,12.00
2023-05-03T08:27:45.322Z,11.82
2023-05-03T08:30:13.934Z,11.85
2023-05-03T08:32:42.095Z,10.80
2023-05-03T08:35:14.038Z,11.48
2023-05-03T08:37:43.311Z,12.68
2023-05-03T08:40:13.826Z,12.80
2023-05-03T08:42:43.052Z,11.95
2023-05-03T08:45:14.387Z,10.52
2023-05-03T08:47:44.800Z,11.63
2023-05-03T08:50:16.519Z,12.73
2023-05-03T08:52:45.267Z,12.80
2023-05-03T08:55:13.875Z,12.13
2023-05-03T08:57:42.273Z,12.45
2023-05-03T09:00:12.996Z,11.52
2023-05-03T09:02:41.797Z,12.50
2023-05-03T09:05:39.068Z,12.93
2023-05-03T09:08:09.316Z,14.07
2023-05-03T09:10:39.772Z,13.00
2023-05-03T09:13:09.002Z,11.85
2023-05-03T09:15:37.426Z,11.43
2023-05-03T09:18:14.096Z,11.95
2023-05-03T09:20:51.388Z,12.95
2023-05-03T09:23:21.191Z,11.10
2023-05-03T09:25:51.581Z,11.88
2023-05-03T09:28:21.218Z,13.43
2023-05-03T09:30:50.542Z,13.50
2023-05-03T09:33:30.577Z,13.27
2023-05-03T09:36:01.625Z,10.77
2023-05-03T09:38:31.104Z,12.98
2023-05-03T09:40:59.677Z,11.80
2023-05-03T09:43:27.789Z,12.90
2023-05-03T09:46:09.994Z,13.00
2023-05-03T09:48:38.438Z,12.20
2023-05-03T09:51:08.549Z,12.43
2023-05-03T09:53:38.625Z,11.60
2023-05-03T09:56:10.247Z,13.02
2023-05-03T09:58:38.830Z,11.52
2023-05-03T10:01:07.788Z,12.32
2023-05-03T10:03:41.684Z,10.35
2023-05-03T10:06:24.454Z,10.50
2023-05-03T10:08:56.788Z,12.15
2023-05-03T10:11:28.042Z,11.98
2023-05-03T10:13:57.121Z,11.80
2023-05-03T10:16:28.947Z,11.50
2023-05-03T10:19:05.672Z,11.10
2023-05-03T10:21:48.902Z,11.00
2023-05-03T10:24:18.233Z,11.93
2023-05-03T10:26:47.528Z,11.32
2023-05-03T10:29:51.540Z,11.13
2023-05-03T10:32:30.781Z,10.68
2023-05-03T10:35:03.469Z,9.93
2023-05-03T10:37:34.595Z,10.20
2023-05-03T10:40:11.466Z,10.30
2023-05-03T10:42:40.411Z,9.82
2023-05-03T10:45:12.136Z,10.40
2023-05-03T10:47:40.912Z,9.35
2023-05-03T10:50:30.671Z,9.43
2023-05-03T10:53:00.303Z,10.45
2023-05-03T10:55:28.497Z,9.60
2023-05-03T10:57:59.105Z,9.00
2023-05-03T11:00:35.172Z,8.68
2023-05-03T11:03:12.346Z,8.88
2023-05-03T11:05:41.109Z,9.30
2023-05-03T11:08:13.372Z,9.55
2023-05-03T11:10:42.043Z,9.77
2023-05-03T11:13:10.204Z,10.20
2023-05-03T11:15:38.847Z,8.45
2023-05-03T11:18:08.146Z,8.70
2023-05-03T11:20:37.256Z,8.38
2023-05-03T11:23:06.212Z,7.55
2023-05-03T11:25:35.775Z,7.18
2023-05-03T11:28:04.956Z,7.60
2023-05-03T11:30:35.466Z,8.52
2023-05-03T11:33:03.932Z,9.73
2023-05-03T11:35:33.133Z,8.45
2023-05-03T11:38:01.243Z,8.30
2023-05-03T11:40:29.369Z,8.90
2023-05-03T11:43:00.177Z,8.00
2023-05-03T11:45:32.282Z,7.05
2023-05-03T11:48:01.573Z,7.22
2023-05-03T11:50:45.516Z,7.28
2023-05-03T11:53:14.154Z,7.28
2023-05-03T11:55:43.938Z,9.07
2023-05-03T11:58:15.757Z,7.65
2023-05-03T12:00:46.844Z,9.00
2023-05-03T12:03:19.196Z,7.32
2023-05-03T12:05:48.698Z,6.88
2023-05-03T12:08:20.991Z,5.75
2023-05-03T12:10:53.163Z,7.57
2023-05-03T12:13:33.323Z,7.20
2023-05-03T12:18:50.573Z,7.93
2023-05-03T12:23:55.966Z,6.43
2023-05-03T12:26:25.790Z,6.78
2023-05-03T12:28:57.219Z,6.93
2023-05-03T12:31:28.934Z,7.20
2023-05-03T12:34:11.731Z,7.13
2023-05-03T12:36:48.784Z,7.15
2023-05-03T12:39:21.615Z,5.40
2023-05-03T12:44:23.771Z,6.43
2023-05-03T12:46:53.391Z,6.95
2023-05-03T12:49:23.559Z,5.50
2023-05-03T12:52:11.377Z,5.70
2023-05-03T12:54:42.085Z,5.47
2023-05-03T12:57:15.422Z,4.93
2023-05-03T12:59:52.375Z,6.60
2023-05-03T13:04:58.630Z,4.73
2023-05-03T13:07:30.490Z,6.20
2023-05-03T13:12:33.362Z,6.67
2023-05-03T13:15:05.239Z,5.97
2023-05-03T13:17:33.854Z,5.90
2023-05-03T13:20:02.116Z,6.40
2023-05-03T13:22:31.960Z,5.73
2023-05-03T13:25:00.317Z,5.40
2023-05-03T13:27:28.635Z,5.30
2023-05-03T13:29:56.771Z,5.27
2023-05-03T13:32:26.387Z,4.03
2023-05-03T13:34:54.430Z,5.07
2023-05-03T13:37:22.748Z,5.30
2023-05-03T13:39:50.963Z,5.70
2023-05-03T13:42:19.175Z,6.10
2023-05-03T13:44:48.277Z,6.67
2023-05-03T13:47:16.501Z,7.53
2023-05-03T13:49:45.913Z,5.93
2023-05-03T13:52:14.829Z,5.77
2023-05-03T13:54:43.665Z,5.07
2023-05-03T13:57:13.354Z,4.87
2023-05-03T13:59:42.021Z,5.40
2023-05-03T14:02:10.210Z,5.03
2023-05-03T14:04:38.667Z,5.40
2023-05-03T14:07:08.176Z,6.60
2023-05-03T14:09:39.643Z,8.30
2023-05-03T14:12:09.341Z,6.30
2023-05-03T14:14:37.497Z,7.10
2023-05-03T14:17:06.629Z,5.40
2023-05-03T14:19:36.785Z,5.33
2023-05-03T14:22:04.895Z,5.90
2023-05-03T14:24:34.440Z,5.00
2023-05-03T14:27:03.126Z,5.70
2023-05-03T14:29:31.557Z,4.60
2023-05-03T14:31:59.711Z,5.93
2023-05-03T14:34:29.145Z,6.00
2023-05-03T14:36:57.307Z,6.30
2023-05-03T14:39:25.894Z,5.33
2023-05-03T14:41:56.483Z,5.10
2023-05-03T14:44:25.116Z,4.33
2023-05-03T14:46:54.056Z,5.43
2023-05-03T14:49:22.495Z,5.10
2023-05-03T14:51:50.797Z,4.70
2023-05-03T14:54:19.711Z,4.60
2023-05-03T14:56:49.588Z,5.13
2023-05-03T14:59:19.258Z,4.87
2023-05-03T15:01:47.717Z,4.43
2023-05-03T15:04:15.901Z,5.43
2023-05-03T15:06:44.146Z,5.23
2023-05-03T15:09:13.063Z,4.93
2023-05-03T15:11:41.500Z,5.07
2023-05-03T15:15:24.663Z,6.10
2023-05-03T15:17:54.266Z,4.60
2023-05-03T15:20:22.413Z,4.57
2023-05-03T15:22:50.713Z,4.90
2023-05-03T15:25:19.007Z,5.10
2023-05-03T15:27:47.232Z,5.53
2023-05-03T15:30:17.266Z,5.47
2023-05-03T15:32:46.044Z,4.90
2023-05-03T15:35:15.822Z,4.67
2023-05-03T15:37:44.073Z,4.33
2023-05-03T15:40:13.621Z,4.90
2023-05-03T15:42:41.794Z,4.70
2023-05-03T15:45:10.941Z,4.77
2023-05-03T15:47:39.322Z,4.07
2023-05-03T15:50:09.050Z,4.60
2023-05-03T15:52:39.061Z,4.47
2023-05-03T15:55:09.588Z,4.80
2023-05-03T15:57:37.865Z,3.67
2023-05-03T16:00:13.489Z,4.10
2023-05-03T16:02:42.111Z,4.77
2023-05-03T16:05:11.314Z,4.67
2023-05-03T16:07:40.930Z,4.80
2023-05-03T16:10:11.031Z,4.00
2023-05-03T16:12:39.233Z,3.20
2023-05-03T16:15:08.697Z,4.20
2023-05-03T16:17:36.905Z,5.17
2023-05-03T16:20:06.705Z,4.80
2023-05-03T16:22:35.047Z,5.60
2023-05-03T16:25:07.464Z,5.30
2023-05-03T16:27:35.724Z,5.03
2023-05-03T16:30:04.047Z,5.03
2023-05-03T16:32:32.431Z,4.10
2023-05-03T16:35:00.923Z,4.57
2023-05-03T16:37:29.453Z,4.80
2023-05-03T16:40:04.929Z,5.57
2023-05-03T16:43:00.272Z,5.20
2023-05-03T16:45:38.866Z,4.83
2023-05-03T16:48:15.705Z,5.87
2023-05-03T16:50:46.985Z,4.87
2023-05-03T16:54:06.492Z,4.40
2023-05-03T16:57:50.894Z,4.60
2023-05-03T17:00:21.949Z,3.73
2023-05-03T17:02:50.311Z,3.83
2023-05-03T17:05:20.251Z,4.03
2023-05-03T17:07:48.613Z,4.33
2023-05-03T17:10:16.981Z,3.70
2023-05-03T17:12:48.266Z,4.30
2023-05-03T17:15:16.861Z,3.83
2023-05-03T17:17:47.686Z,4.10
2023-05-03T17:20:16.600Z,3.93
2023-05-03T17:22:44.974Z,4.70
2023-05-03T17:25:13.334Z,4.30
2023-05-03T17:27:44.139Z,3.77
2023-05-03T17:30:13.860Z,3.70
2023-05-03T17:32:42.138Z,4.13
2023-05-03T17:35:12.588Z,3.83
2023-05-03T17:37:40.949Z,3.57
2023-05-03T17:40:10.184Z,4.20
2023-05-03T17:42:38.461Z,5.27
2023-05-03T17:45:08.274Z,4.70
2023-05-03T17:47:36.893Z,3.90
2023-05-03T17:50:05.442Z,4.47
2023-05-03T17:52:35.111Z,4.23
2023-05-03T17:55:04.549Z,4.53
2023-05-03T17:57:33.015Z,4.20
2023-05-03T18:00:01.223Z,5.07
2023-05-03T18:02:32.918Z,4.30
2023-05-03T18:05:02.288Z,4.50
2023-05-03T18:07:30.452Z,4.10
2023-05-03T18:10:01.910Z,4.97
2023-05-03T18:12:31.047Z,3.92
2023-05-03T18:15:00.505Z,3.90
2023-05-03T18:17:29.767Z,4.00
2023-05-03T18:19:57.957Z,5.15
2023-05-03T18:22:27.778Z,3.78
2023-05-03T18:24:56.829Z,3.65
2023-05-03T18:27:26.464Z,4.55
2023-05-03T18:29:54.652Z,4.28
2023-05-03T18:32:24.054Z,4.25
2023-05-03T18:34:52.207Z,3.92
2023-05-03T18:37:24.447Z,4.03
2023-05-03T18:39:53.360Z,3.88
2023-05-03T18:42:22.579Z,4.25
2023-05-03T18:45:02.344Z,4.30
2023-05-03T18:47:37.241Z,4.28
2023-05-03T18:50:11.428Z,4.00
2023-05-03T18:52:46.089Z,4.38
2023-05-03T18:55:22.691Z,3.97
2023-05-03T18:58:00.592Z,5.47
2023-05-03T19:00:35.558Z,3.97
2023-05-03T19:03:10.839Z,3.80
2023-05-03T19:05:47.910Z,3.97
2023-05-03T19:08:25.083Z,4.30
2023-05-03T19:10:59.549Z,4.93
2023-05-03T19:13:35.012Z,3.92
2023-05-03T19:16:15.735Z,4.55
2023-05-03T19:18:50.579Z,4.63
2023-05-03T19:21:26.696Z,4.03
2023-05-03T19:24:10.225Z,4.53
2023-05-03T19:26:48.003Z,5.03
2023-05-03T19:29:23.814Z,4.25
2023-05-03T19:32:03.634Z,4.88
2023-05-03T19:34:41.719Z,4.75
2023-05-03T19:37:15.522Z,4.30
2023-05-03T19:39:52.093Z,4.30
2023-05-03T19:42:25.407Z,4.43
2023-05-03T19:44:56.994Z,5.43
2023-05-03T19:47:33.361Z,6.07
2023-05-03T19:50:06.425Z,5.40
2023-05-03T19:52:40.679Z,5.90
2023-05-03T19:55:12.833Z,6.32
2023-05-03T19:57:47.386Z,4.65
2023-05-03T20:00:21.350Z,5.95
2023-05-03T20:02:56.873Z,6.13
2023-05-03T20:05:33.765Z,5.97
2023-05-03T20:08:04.090Z,5.70
2023-05-03T20:10:36.322Z,5.30
2023-05-03T20:13:04.950Z,5.85
2023-05-03T20:15:33.987Z,5.00
2023-05-03T20:18:03.803Z,5.63
2023-05-03T20:20:32.089Z,5.50
2023-05-03T20:23:00.429Z,5.40
2023-05-03T20:25:28.868Z,6.47
2023-05-03T20:27:57.234Z,5.40
2023-05-03T20:30:26.055Z,4.88
2023-05-03T20:32:54.443Z,5.65
2023-05-03T20:35:24.313Z,5.30
2023-05-03T20:37:52.608Z,5.93
2023-05-03T20:40:20.935Z,5.90
2023-05-03T20:42:49.111Z,5.32
2023-05-03T20:45:17.639Z,5.20
2023-05-03T20:47:46.034Z,5.43
2023-05-03T20:50:14.967Z,5.82
2023-05-03T20:52:45.054Z,4.75
2023-05-03T20:55:13.425Z,5.97
2023-05-03T20:57:42.506Z,6.55
2023-05-03T21:00:12.823Z,5.63
2023-05-03T21:02:41.228Z,5.60
2023-05-03T21:05:10.960Z,5.43
2023-05-03T21:07:39.816Z,6.15
2023-05-03T21:10:10.770Z,5.50
2023-05-03T21:12:38.930Z,5.70
2023-05-03T21:15:07.926Z,5.80
2023-05-03T21:17:36.182Z,5.82
2023-05-03T21:20:05.877Z,6.57
2023-05-03T21:22:34.217Z,6.28
2023-05-03T21:25:03.047Z,6.47
2023-05-03T21:27:32.618Z,5.60
2023-05-03T21:30:01.510Z,6.70
2023-05-03T21:32:30.345Z,6.35
2023-05-03T21:34:58.721Z,5.75
2023-05-03T21:37:27.097Z,5.10
2023-05-03T21:40:02.032Z,6.40
2023-05-03T21:42:32.266Z,5.15
2023-05-03T21:45:00.453Z,6.10
2023-05-03T21:47:28.923Z,5.10
2023-05-03T21:49:57.584Z,6.40
2023-05-03T21:52:25.837Z,5.68
2023-05-03T21:54:54.704Z,5.47
2023-05-03T21:57:22.930Z,5.50
2023-05-03T21:59:54.157Z,5.80
2023-05-03T22:02:22.708Z,6.25
2023-05-03T22:04:51.992Z,6.07
2023-05-03T22:07:20.079Z,5.85
2023-05-03T22:09:48.970Z,6.20
2023-05-03T22:12:23.910Z,6.22
2023-05-03T22:14:54.244Z,5.35
2023-05-03T22:17:22.901Z,5.18
2023-05-03T22:19:51.399Z,6.78
2023-05-03T22:22:19.512Z,7.07
2023-05-03T22:24:47.784Z,7.32
2023-05-03T22:27:15.807Z,7.15
2023-05-03T22:29:44.180Z,6.70
2023-05-03T22:32:13.967Z,5.85
2023-05-03T22:34:42.156Z,6.70
2023-05-03T22:37:10.479Z,6.55
2023-05-03T22:39:39.594Z,7.07
2023-05-03T22:42:07.751Z,7.10
2023-05-03T22:44:36.483Z,6.50
2023-05-03T22:47:04.650Z,5.30
2023-05-03T22:49:34.131Z,5.93
2023-05-03T22:52:04.232Z,6.35
2023-05-03T22:54:32.276Z,5.88
2023-05-03T22:57:00.693Z,5.72
2023-05-03T22:59:28.946Z,5.95
2023-05-03T23:01:57.259Z,5.88
2023-05-03T23:04:25.539Z,5.95
2023-05-03T23:06:55.006Z,5.97
2023-05-03T23:09:23.141Z,6.20
2023-05-03T23:11:51.144Z,6.78
2023-05-03T23:14:19.452Z,5.90
2023-05-03T23:16:47.795Z,6.15
2023-05-03T23:19:16.018Z,6.70
2023-05-03T23:21:44.210Z,6.68
2023-05-03T23:24:13.637Z,6.32
2023-05-03T23:26:41.884Z,6.55
2023-05-03T23:29:10.675Z,6.13
2023-05-03T23:31:39.333Z,5.30
2023-05-03T23:34:08.237Z,6.43
2023-05-03T23:36:36.329Z,5.78
2023-05-03T23:39:04.850Z,5.90
2023-05-03T23:41:34.665Z,6.03
2023-05-03T23:44:03.155Z,6.07
2023-05-03T23:46:33.764Z,6.03
2023-05-03T23:49:01.876Z,6.18
2023-05-03T23:51:30.253Z,5.15
2023-05-03T23:53:58.329Z,5.80
2023-05-03T23:56:26.909Z,6.30
2023-05-03T23:58:56.586Z,6.75
